createdAt,value
2022-12-20T00:01:37.801Z,7.80
2022-12-20T00:04:11.067Z,7.85
2022-12-20T00:06:43.055Z,7.85
2022-12-20T00:09:15.133Z,7.85
2022-12-20T00:11:47.268Z,7.90
2022-12-20T00:14:19.377Z,7.93
2022-12-20T00:16:51.480Z,7.89
2022-12-20T00:19:23.680Z,7.96
2022-12-20T00:21:55.670Z,7.94
2022-12-20T00:24:27.631Z,7.86
2022-12-20T00:26:59.704Z,7.91
2022-12-20T00:29:31.733Z,7.99
2022-12-20T00:32:03.922Z,8.06
2022-12-20T00:34:35.938Z,8.13
2022-12-20T00:37:07.881Z,8.10
2022-12-20T00:39:39.961Z,8.11
2022-12-20T00:42:12.037Z,8.14
2022-12-20T00:44:46.610Z,8.20
2022-12-20T00:47:21.559Z,8.16
2022-12-20T00:49:53.670Z,8.21
2022-12-20T00:52:25.648Z,8.21
2022-12-20T00:54:57.651Z,8.13
2022-12-20T00:57:29.602Z,8.14
2022-12-20T01:00:01.608Z,8.23
2022-12-20T01:02:33.731Z,8.32
2022-12-20T01:05:06.272Z,8.35
2022-12-20T01:07:38.264Z,8.36
2022-12-20T01:10:11.208Z,8.44
2022-12-20T01:12:43.164Z,8.38
2022-12-20T01:15:16.022Z,8.46
2022-12-20T01:17:48.483Z,8.52
2022-12-20T01:20:20.478Z,8.50
2022-12-20T01:22:52.436Z,8.56
2022-12-20T01:25:24.381Z,8.51
2022-12-20T01:27:57.580Z,8.54
2022-12-20T01:30:30.228Z,8.54
2022-12-20T01:33:02.137Z,8.70
2022-12-20T01:35:34.142Z,8.63
2022-12-20T01:38:06.105Z,8.66
2022-12-20T01:40:39.772Z,8.70
2022-12-20T01:43:15.191Z,8.74
2022-12-20T01:45:47.664Z,8.77
2022-12-20T01:48:25.946Z,8.81
2022-12-20T01:50:57.982Z,8.84
2022-12-20T01:53:30.129Z,8.86
2022-12-20T01:56:07.035Z,8.86
2022-12-20T01:58:40.149Z,8.87
2022-12-20T02:01:12.204Z,8.90
2022-12-20T02:03:45.273Z,8.98
2022-12-20T02:06:25.894Z,9.04
2022-12-20T02:09:00.571Z,9.05
2022-12-20T02:12:12.690Z,9.00
2022-12-20T02:15:03.728Z,8.99
2022-12-20T02:18:01.089Z,9.00
2022-12-20T02:21:27.057Z,9.00
2022-12-20T02:24:18.802Z,9.02
2022-12-20T02:27:29.957Z,8.97
2022-12-20T02:30:11.310Z,8.98
2022-12-20T02:33:03.464Z,8.96
2022-12-20T02:35:38.123Z,8.97
2022-12-20T02:38:34.591Z,8.90
2022-12-20T02:41:20.812Z,8.82
2022-12-20T02:44:22.990Z,8.84
2022-12-20T02:46:58.854Z,8.89
2022-12-20T02:49:38.680Z,8.95
2022-12-20T02:52:13.265Z,8.97
2022-12-20T02:54:45.282Z,9.02
2022-12-20T02:57:26.824Z,9.04
2022-12-20T03:00:10.380Z,9.10
2022-12-20T03:03:03.805Z,9.15
2022-12-20T03:05:44.595Z,9.11
2022-12-20T03:08:17.439Z,9.02
2022-12-20T03:10:50.264Z,9.06
2022-12-20T03:13:25.908Z,9.03
2022-12-20T03:15:58.043Z,9.08
2022-12-20T03:18:30.082Z,9.04
2022-12-20T03:21:02.182Z,9.12
2022-12-20T03:23:34.499Z,9.16
2022-12-20T03:26:06.779Z,9.10
2022-12-20T03:28:38.728Z,9.10
2022-12-20T03:31:10.864Z,9.17
2022-12-20T03:33:42.908Z,9.12
2022-12-20T03:36:15.078Z,9.13
2022-12-20T03:38:47.327Z,9.10
2022-12-20T03:41:21.953Z,9.19
2022-12-20T03:43:54.071Z,9.20
2022-12-20T03:46:26.193Z,9.20
2022-12-20T03:48:58.222Z,9.26
2022-12-20T03:51:30.188Z,9.27
2022-12-20T03:54:02.206Z,9.25
2022-12-20T03:56:34.165Z,9.22
2022-12-20T03:59:06.167Z,9.27
2022-12-20T04:01:38.952Z,9.33
2022-12-20T04:04:13.816Z,9.34
2022-12-20T04:06:45.834Z,9.40
2022-12-20T04:09:17.757Z,9.30
2022-12-20T04:11:49.737Z,9.28
2022-12-20T04:14:21.690Z,9.19
2022-12-20T04:16:53.636Z,9.26
2022-12-20T04:19:25.670Z,9.23
2022-12-20T04:22:04.726Z,9.25
2022-12-20T04:24:37.811Z,9.25
2022-12-20T04:27:09.801Z,9.20
2022-12-20T04:29:41.743Z,9.18
2022-12-20T04:32:13.677Z,9.16
2022-12-20T04:34:45.608Z,9.11
2022-12-20T04:37:17.555Z,9.12
2022-12-20T04:39:49.491Z,9.11
2022-12-20T04:42:21.459Z,9.08
2022-12-20T04:44:53.418Z,9.08
2022-12-20T04:47:25.449Z,9.06
2022-12-20T04:49:57.433Z,9.06
2022-12-20T04:52:48.436Z,9.15
2022-12-20T04:55:20.508Z,9.09
2022-12-20T04:57:52.551Z,9.20
2022-12-20T05:00:24.653Z,9.18
2022-12-20T05:02:56.904Z,9.24
2022-12-20T05:05:29.163Z,9.24
2022-12-20T05:08:01.183Z,9.24
2022-12-20T05:10:33.185Z,9.22
2022-12-20T05:13:09.227Z,9.29
2022-12-20T05:15:42.686Z,9.25
2022-12-20T05:18:15.388Z,9.32
2022-12-20T05:20:48.123Z,9.37
2022-12-20T05:23:38.263Z,9.36
2022-12-20T05:26:19.232Z,9.40
2022-12-20T05:28:52.084Z,9.42
2022-12-20T05:31:24.297Z,9.41
2022-12-20T05:33:56.552Z,9.39
2022-12-20T05:36:29.108Z,9.46
2022-12-20T05:39:04.425Z,9.49
2022-12-20T05:41:36.817Z,9.45
2022-12-20T05:44:08.974Z,9.47
2022-12-20T05:46:41.116Z,9.47
2022-12-20T05:49:13.184Z,9.42
2022-12-20T05:51:45.543Z,9.37
2022-12-20T05:54:17.626Z,9.32
2022-12-20T05:56:49.885Z,9.35
2022-12-20T05:59:22.013Z,9.32
2022-12-20T06:01:54.913Z,9.39
2022-12-20T06:04:27.060Z,9.37
2022-12-20T06:06:59.990Z,9.48
2022-12-20T06:09:33.188Z,9.41
2022-12-20T06:12:05.982Z,9.37
2022-12-20T06:14:37.951Z,9.35
2022-12-20T06:17:09.981Z,9.32
2022-12-20T06:19:42.218Z,9.35
2022-12-20T06:22:14.269Z,9.38
2022-12-20T06:24:48.803Z,9.34
2022-12-20T06:27:23.044Z,9.32
2022-12-20T06:29:55.027Z,9.31
2022-12-20T06:32:34.299Z,9.36
2022-12-20T06:35:06.930Z,9.36
2022-12-20T06:37:40.675Z,9.31
2022-12-20T06:40:14.032Z,9.40
2022-12-20T06:42:46.278Z,9.40
2022-12-20T06:45:19.956Z,9.34
2022-12-20T06:47:51.965Z,9.32
2022-12-20T06:50:24.579Z,9.33
2022-12-20T06:52:56.505Z,9.36
2022-12-20T06:55:28.469Z,9.36
2022-12-20T06:58:00.580Z,9.37
2022-12-20T07:00:35.553Z,9.29
2022-12-20T07:03:07.686Z,9.32
2022-12-20T07:05:40.492Z,9.31
2022-12-20T07:08:12.492Z,9.33
2022-12-20T07:10:44.524Z,9.31
2022-12-20T07:13:16.850Z,9.39
2022-12-20T07:15:48.860Z,9.37
2022-12-20T07:18:20.824Z,9.35
2022-12-20T07:20:53.068Z,9.34
2022-12-20T07:23:25.010Z,9.42
2022-12-20T07:26:00.368Z,9.42
2022-12-20T07:28:32.376Z,9.48
2022-12-20T07:31:04.990Z,9.45
2022-12-20T07:33:37.492Z,9.40
2022-12-20T07:36:15.966Z,9.37
2022-12-20T07:38:49.118Z,9.39
2022-12-20T07:41:21.262Z,9.44
2022-12-20T07:43:53.298Z,9.48
2022-12-20T07:46:25.655Z,9.54
2022-12-20T07:48:57.821Z,9.55
2022-12-20T07:51:36.768Z,9.58
2022-12-20T07:54:33.046Z,9.69
2022-12-20T07:57:17.529Z,9.60
2022-12-20T07:59:55.040Z,9.61
2022-12-20T08:02:37.500Z,9.61
2022-12-20T08:05:11.023Z,9.60
2022-12-20T08:07:44.519Z,9.62
2022-12-20T08:10:19.784Z,9.66
2022-12-20T08:12:52.910Z,9.77
2022-12-20T08:15:25.700Z,9.77
2022-12-20T08:17:57.921Z,9.82
2022-12-20T08:20:30.409Z,9.87
2022-12-20T08:23:04.766Z,9.89
2022-12-20T08:25:41.531Z,9.95
2022-12-20T08:28:13.855Z,9.96
2022-12-20T08:30:46.827Z,10.06
2022-12-20T08:33:19.743Z,10.06
2022-12-20T08:36:02.583Z,10.14
2022-12-20T08:38:35.698Z,10.12
2022-12-20T08:41:14.500Z,10.20
2022-12-20T08:43:46.519Z,10.21
2022-12-20T08:46:18.540Z,10.27
2022-12-20T08:48:50.600Z,10.27
2022-12-20T08:51:22.868Z,10.34
2022-12-20T08:53:54.844Z,10.32
2022-12-20T08:56:26.932Z,10.44
2022-12-20T08:58:58.974Z,10.37
2022-12-20T09:01:33.820Z,10.42
2022-12-20T09:04:06.197Z,10.46
2022-12-20T09:06:39.031Z,10.43
2022-12-20T09:09:11.077Z,10.47
2022-12-20T09:11:43.157Z,10.48
2022-12-20T09:14:15.129Z,10.63
2022-12-20T09:16:47.356Z,10.51
2022-12-20T09:19:19.296Z,10.53
2022-12-20T09:21:51.279Z,10.51
2022-12-20T09:24:23.223Z,10.57
2022-12-20T09:26:55.149Z,10.75
2022-12-20T09:29:32.164Z,10.76
2022-12-20T09:32:07.554Z,10.85
2022-12-20T09:34:39.570Z,10.88
2022-12-20T09:37:11.702Z,11.03
2022-12-20T09:39:43.826Z,10.98
2022-12-20T09:42:16.300Z,11.06
2022-12-20T09:44:49.294Z,11.01
2022-12-20T09:47:24.876Z,11.05
2022-12-20T09:49:57.888Z,10.98
2022-12-20T09:53:00.248Z,10.96
2022-12-20T09:56:04.108Z,10.97
2022-12-20T09:59:03.129Z,10.90
2022-12-20T10:01:40.036Z,10.82
2022-12-20T10:04:24.247Z,10.95
2022-12-20T10:07:21.059Z,10.94
2022-12-20T10:10:15.564Z,10.93
2022-12-20T10:13:27.707Z,11.00
2022-12-20T10:16:24.297Z,11.03
2022-12-20T10:19:34.857Z,11.01
2022-12-20T10:22:31.758Z,11.00
2022-12-20T10:25:24.436Z,10.95
2022-12-20T10:27:57.581Z,11.06
2022-12-20T10:30:32.615Z,11.16
2022-12-20T10:33:04.905Z,11.13
2022-12-20T10:35:41.537Z,11.15
2022-12-20T10:38:17.774Z,11.31
2022-12-20T10:44:07.503Z,11.43
2022-12-20T10:46:44.795Z,11.55
2022-12-20T10:49:41.028Z,11.47
2022-12-20T10:52:14.700Z,11.36
2022-12-20T10:54:47.543Z,11.35
2022-12-20T10:57:27.256Z,11.46
2022-12-20T11:00:09.125Z,11.44
2022-12-20T11:02:42.991Z,11.51
2022-12-20T11:05:22.966Z,11.44
2022-12-20T11:08:36.313Z,11.60
2022-12-20T11:11:24.047Z,11.77
2022-12-20T11:14:15.387Z,11.77
2022-12-20T11:16:51.450Z,11.73
2022-12-20T11:19:53.279Z,11.62
2022-12-20T11:22:51.208Z,11.59
2022-12-20T11:26:09.839Z,11.49
2022-12-20T11:29:10.936Z,11.50
2022-12-20T11:32:21.834Z,11.44
2022-12-20T11:35:10.693Z,11.33
2022-12-20T11:38:12.736Z,11.25
2022-12-20T11:40:55.419Z,11.25
2022-12-20T11:44:15.842Z,11.09
2022-12-20T11:46:57.440Z,10.93
2022-12-20T11:49:54.672Z,10.79
2022-12-20T11:52:55.265Z,10.75
2022-12-20T11:55:32.366Z,10.70
2022-12-20T11:58:26.308Z,10.60
2022-12-20T12:01:12.941Z,10.54
2022-12-20T12:04:05.236Z,10.56
2022-12-20T12:06:47.158Z,10.52
2022-12-20T12:09:30.759Z,10.62
2022-12-20T12:12:48.877Z,10.62
2022-12-20T12:15:50.996Z,10.61
2022-12-20T12:18:28.249Z,10.66
2022-12-20T12:21:11.795Z,10.81
2022-12-20T12:24:03.905Z,10.91
2022-12-20T12:26:41.689Z,10.95
2022-12-20T12:29:17.174Z,10.92
2022-12-20T12:31:59.691Z,10.83
2022-12-20T12:35:17.909Z,10.75
2022-12-20T12:38:30.241Z,10.71
2022-12-20T12:41:09.475Z,10.66
2022-12-20T12:43:49.572Z,10.57
2022-12-20T12:46:35.239Z,10.61
2022-12-20T12:49:16.940Z,10.60
2022-12-20T12:52:00.096Z,10.52
2022-12-20T12:54:41.347Z,10.50
2022-12-20T12:57:19.183Z,10.56
2022-12-20T12:59:52.080Z,10.60
2022-12-20T13:02:28.280Z,10.62
2022-12-20T13:05:11.042Z,10.60
2022-12-20T13:07:43.896Z,10.52
2022-12-20T13:10:18.483Z,10.56
2022-12-20T13:12:50.523Z,10.58
2022-12-20T13:15:22.660Z,10.50
2022-12-20T13:18:02.585Z,10.48
2022-12-20T13:20:37.163Z,10.39
2022-12-20T13:23:09.055Z,10.42
2022-12-20T13:25:48.050Z,10.43
2022-12-20T13:28:23.041Z,10.42
2022-12-20T13:31:01.436Z,10.43
2022-12-20T13:33:47.306Z,10.40
2022-12-20T13:36:34.174Z,10.36
2022-12-20T13:39:21.519Z,10.38
2022-12-20T13:42:18.270Z,10.39
2022-12-20T13:44:53.012Z,10.40
2022-12-20T13:47:54.207Z,10.36
2022-12-20T13:50:47.928Z,10.39
2022-12-20T13:53:23.690Z,10.35
2022-12-20T13:55:56.400Z,10.36
2022-12-20T13:58:34.488Z,10.30
2022-12-20T14:01:11.983Z,10.28
2022-12-20T14:03:48.175Z,10.28
2022-12-20T14:06:26.902Z,10.32
2022-12-20T14:08:59.249Z,10.29
2022-12-20T14:11:31.202Z,10.28
2022-12-20T14:14:04.785Z,10.31
2022-12-20T14:16:38.899Z,10.33
2022-12-20T14:19:15.578Z,10.22
2022-12-20T14:21:47.860Z,10.20
2022-12-20T14:24:22.859Z,10.25
2022-12-20T14:26:55.747Z,10.21
2022-12-20T14:29:31.400Z,10.27
2022-12-20T14:32:05.189Z,10.31
2022-12-20T14:34:42.001Z,10.35
2022-12-20T14:37:37.859Z,10.41
2022-12-20T14:40:09.931Z,10.29
2022-12-20T14:42:42.079Z,10.31
2022-12-20T14:45:14.223Z,10.34
2022-12-20T14:48:09.457Z,10.35
2022-12-20T14:50:51.509Z,10.40
2022-12-20T14:53:28.951Z,10.33
2022-12-20T14:56:02.473Z,10.40
2022-12-20T14:58:35.211Z,10.47
2022-12-20T15:01:27.240Z,10.48
2022-12-20T15:04:00.914Z,10.51
2022-12-20T15:06:37.767Z,10.56
2022-12-20T15:09:10.097Z,10.56
2022-12-20T15:11:44.390Z,10.57
2022-12-20T15:14:29.258Z,10.57
2022-12-20T15:17:01.802Z,10.51
2022-12-20T15:19:38.861Z,10.52
2022-12-20T15:22:16.490Z,10.48
2022-12-20T15:24:48.555Z,10.62
2022-12-20T15:27:20.653Z,10.70
2022-12-20T15:29:53.314Z,10.70
2022-12-20T15:32:32.147Z,10.68
2022-12-20T15:35:04.933Z,10.66
2022-12-20T15:37:37.038Z,10.62
2022-12-20T15:40:15.040Z,10.68
2022-12-20T15:42:47.103Z,10.63
2022-12-20T15:45:19.103Z,10.66
2022-12-20T15:47:51.161Z,10.62
2022-12-20T15:50:23.300Z,10.70
2022-12-20T15:52:55.958Z,10.68
2022-12-20T15:55:27.937Z,10.67
2022-12-20T15:57:59.896Z,10.71
2022-12-20T16:00:31.879Z,10.57
2022-12-20T16:03:04.119Z,10.68
2022-12-20T16:05:36.337Z,10.68
2022-12-20T16:08:08.515Z,10.64
2022-12-20T16:10:40.873Z,10.62
2022-12-20T16:13:21.034Z,10.55
2022-12-20T16:15:53.950Z,10.64
2022-12-20T16:18:31.494Z,10.61
2022-12-20T16:21:16.942Z,10.67
2022-12-20T16:23:50.901Z,10.64
2022-12-20T16:26:25.287Z,10.63
2022-12-20T16:28:57.470Z,10.56
2022-12-20T16:31:42.279Z,10.63
2022-12-20T16:34:17.222Z,10.67
2022-12-20T16:36:49.330Z,10.63
2022-12-20T16:39:22.730Z,10.61
2022-12-20T16:41:55.143Z,10.64
2022-12-20T16:44:27.286Z,10.64
2022-12-20T16:46:59.317Z,10.71
2022-12-20T16:49:31.388Z,10.70
2022-12-20T16:52:05.594Z,10.65
2022-12-20T16:54:37.718Z,10.68
2022-12-20T16:57:10.545Z,10.63
2022-12-20T16:59:42.556Z,10.58
2022-12-20T17:02:29.465Z,10.63
2022-12-20T17:05:02.357Z,10.59
2022-12-20T17:07:41.141Z,10.64
2022-12-20T17:10:13.545Z,10.64
2022-12-20T17:12:46.282Z,10.63
2022-12-20T17:15:25.906Z,10.66
2022-12-20T17:17:58.597Z,10.67
2022-12-20T17:20:35.102Z,10.63
2022-12-20T17:23:16.321Z,10.63
2022-12-20T17:25:53.908Z,10.62
2022-12-20T17:28:27.058Z,10.61
2022-12-20T17:31:07.662Z,10.62
2022-12-20T17:33:40.120Z,10.54
2022-12-20T17:36:12.299Z,10.55
2022-12-20T17:38:44.389Z,10.60
2022-12-20T17:41:30.788Z,10.61
2022-12-20T17:44:05.789Z,10.59
2022-12-20T17:46:37.836Z,10.58
2022-12-20T17:49:09.803Z,10.58
2022-12-20T17:51:42.270Z,10.56
2022-12-20T17:54:33.514Z,10.63
2022-12-20T17:57:15.443Z,10.63
2022-12-20T17:59:47.761Z,10.56
2022-12-20T18:02:25.597Z,10.56
2022-12-20T18:04:57.837Z,10.63
2022-12-20T18:07:29.765Z,10.69
2022-12-20T18:10:01.736Z,10.69
2022-12-20T18:12:37.471Z,10.70
2022-12-20T18:15:10.551Z,10.64
2022-12-20T18:17:42.823Z,10.63
2022-12-20T18:20:15.202Z,10.63
2022-12-20T18:22:47.299Z,10.61
2022-12-20T18:25:19.522Z,10.59
2022-12-20T18:27:51.919Z,10.66
2022-12-20T18:30:23.949Z,10.60
2022-12-20T18:32:55.972Z,10.57
2022-12-20T18:35:28.045Z,10.55
2022-12-20T18:37:59.976Z,10.52
2022-12-20T18:40:31.942Z,10.51
2022-12-20T18:43:06.427Z,10.56
2022-12-20T18:45:38.689Z,10.55
2022-12-20T18:48:11.892Z,10.52
2022-12-20T18:50:43.965Z,10.47
2022-12-20T18:53:16.113Z,10.53
2022-12-20T18:55:48.515Z,10.53
2022-12-20T18:58:20.585Z,10.54
2022-12-20T19:00:57.094Z,10.51
2022-12-20T19:03:29.363Z,10.56
2022-12-20T19:06:01.508Z,10.48
2022-12-20T19:08:34.002Z,10.48
2022-12-20T19:11:10.223Z,10.44
2022-12-20T19:13:43.421Z,10.45
2022-12-20T19:16:19.655Z,10.44
2022-12-20T19:18:52.248Z,10.40
2022-12-20T19:21:29.893Z,10.43
2022-12-20T19:24:06.921Z,10.40
2022-12-20T19:26:39.783Z,10.43
2022-12-20T19:29:12.851Z,10.37
2022-12-20T19:31:44.978Z,10.31
2022-12-20T19:34:16.955Z,10.39
2022-12-20T19:36:49.000Z,10.41
2022-12-20T19:39:23.549Z,10.45
2022-12-20T19:42:22.309Z,10.47
2022-12-20T19:44:47.662Z,10.46
2022-12-20T19:47:19.742Z,10.46
2022-12-20T19:49:52.168Z,10.43
2022-12-20T19:52:28.394Z,10.38
2022-12-20T19:55:01.048Z,10.41
2022-12-20T19:57:34.011Z,10.41
2022-12-20T20:00:08.788Z,10.47
2022-12-20T20:02:40.940Z,10.44
2022-12-20T20:05:15.183Z,10.46
2022-12-20T20:07:47.543Z,10.46
2022-12-20T20:10:19.512Z,10.39
2022-12-20T20:12:51.666Z,10.36
2022-12-20T20:15:24.036Z,10.33
2022-12-20T20:17:56.664Z,10.33
2022-12-20T20:20:28.730Z,10.34
2022-12-20T20:23:00.766Z,10.32
2022-12-20T20:25:35.462Z,10.29
2022-12-20T20:28:07.513Z,10.35
2022-12-20T20:30:48.630Z,10.26
2022-12-20T20:33:21.658Z,10.30
2022-12-20T20:35:59.542Z,10.33
2022-12-20T20:38:33.926Z,10.33
2022-12-20T20:41:06.270Z,10.35
2022-12-20T20:43:38.516Z,10.35
2022-12-20T20:46:16.382Z,10.37
2022-12-20T20:48:48.440Z,10.41
2022-12-20T20:51:20.445Z,10.44
2022-12-20T20:53:52.717Z,10.43
2022-12-20T20:56:24.768Z,10.39
2022-12-20T20:59:02.944Z,10.29
2022-12-20T21:01:38.118Z,10.30
2022-12-20T21:04:10.357Z,10.31
2022-12-20T21:06:42.551Z,10.36
2022-12-20T21:09:14.686Z,10.36
2022-12-20T21:11:46.903Z,10.29
2022-12-20T21:14:36.172Z,10.25
2022-12-20T21:17:11.472Z,10.32
2022-12-20T21:19:43.545Z,10.32
2022-12-20T21:22:16.595Z,10.33
2022-12-20T21:24:48.577Z,10.29
2022-12-20T21:27:20.557Z,10.30
2022-12-20T21:29:52.742Z,10.34
2022-12-20T21:32:24.751Z,10.36
2022-12-20T21:34:56.896Z,10.35
2022-12-20T21:37:32.552Z,10.35
2022-12-20T21:40:06.586Z,10.32
2022-12-20T21:42:38.695Z,10.31
2022-12-20T21:45:12.058Z,10.23
2022-12-20T21:47:44.109Z,10.25
2022-12-20T21:50:16.577Z,10.27
2022-12-20T21:52:48.519Z,10.30
2022-12-20T21:55:20.636Z,10.26
2022-12-20T21:57:52.630Z,10.26
2022-12-20T22:00:24.745Z,10.32
2022-12-20T22:02:57.912Z,10.34
2022-12-20T22:05:30.057Z,10.32
2022-12-20T22:08:02.029Z,10.22
2022-12-20T22:10:34.047Z,10.30
2022-12-20T22:13:06.003Z,10.36
2022-12-20T22:15:39.614Z,10.34
2022-12-20T22:18:11.840Z,10.32
2022-12-20T22:20:47.539Z,10.33
2022-12-20T22:23:19.574Z,10.32
2022-12-20T22:25:51.599Z,10.29
2022-12-20T22:28:23.719Z,10.26
2022-12-20T22:30:55.684Z,10.27
2022-12-20T22:33:27.648Z,10.27
2022-12-20T22:36:00.518Z,10.28
2022-12-20T22:38:32.738Z,10.21
2022-12-20T22:41:15.889Z,10.27
2022-12-20T22:43:48.087Z,10.24
2022-12-20T22:46:20.557Z,10.19
2022-12-20T22:48:52.582Z,10.19
2022-12-20T22:51:27.514Z,10.21
2022-12-20T22:54:00.514Z,10.22
2022-12-20T22:56:32.524Z,10.25
2022-12-20T22:59:05.206Z,10.25
2022-12-20T23:01:37.359Z,10.20
2022-12-20T23:04:09.513Z,10.26
2022-12-20T23:06:42.081Z,10.25
2022-12-20T23:09:14.039Z,10.26
2022-12-20T23:12:04.459Z,10.24
2022-12-20T23:15:00.230Z,10.21
2022-12-20T23:17:35.549Z,10.14
2022-12-20T23:20:27.174Z,10.15
2022-12-20T23:22:59.644Z,10.07
2022-12-20T23:25:31.605Z,10.17
2022-12-20T23:28:03.614Z,10.18
2022-12-20T23:30:35.549Z,10.10
2022-12-20T23:33:07.518Z,10.09
2022-12-20T23:35:39.803Z,10.07
2022-12-20T23:38:11.749Z,10.06
2022-12-20T23:40:43.738Z,10.09
2022-12-20T23:43:16.132Z,10.12
2022-12-20T23:45:48.225Z,10.15
2022-12-20T23:48:20.192Z,10.01
2022-12-20T23:50:59.121Z,10.01
2022-12-20T23:53:31.601Z,10.04
2022-12-20T23:56:10.323Z,10.06
2022-12-20T23:58:44.795Z,10.02
